sensor_id;sensor_type;location;lat;lon;timestamp;pressure;altitude;pressure_sealevel;temperature;humidity
3796;BME280;1913;50.660;7.834;2022-12-18T00:02:14;98238.44;;;-6.19;100.00
3796;BME280;1913;50.660;7.834;2022-12-18T00:04:39;98241.91;;;-6.20;100.00
3796;BME280;1913;50.660;7.834;2022-12-18T00:07:05;98241.38;;;-6.10;100.00
3796;BME280;1913;50.660;7.834;2022-12-18T00:09:30;98241.34;;;-6.08;100.00
3796;BME280;1913;50.660;7.834;2022-12-18T00:11:56;98244.09;;;-6.13;100.00
3796;BME280;1913;50.660;7.834;2022-12-18T00:14:21;98242.91;;;-6.06;100.00
3796;BME280;1913;50.660;7.834;2022-12-18T00:16:46;98243.22;;;-6.12;100.00
3796;BME280;1913;50.660;7.834;2022-12-18T00:19:13;98243.94;;;-6.10;100.00
3796;BME280;1913;50.660;7.834;2022-12-18T00:21:39;98248.84;;;-6.05;100.00
3796;BME280;1913;50.660;7.834;2022-12-18T00:24:05;98247.63;;;-5.98;100.00
3796;BME280;1913;50.660;7.834;2022-12-18T00:26:32;98245.94;;;-5.97;100.00
3796;BME280;1913;50.660;7.834;2022-12-18T00:29:00;98237.19;;;-5.93;100.00
3796;BME280;1913;50.660;7.834;2022-12-18T00:31:26;98229.34;;;-5.90;100.00
3796;BME280;1913;50.660;7.834;2022-12-18T00:33:53;98220.53;;;-5.85;100.00
3796;BME280;1913;50.660;7.834;2022-12-18T00:36:20;98232.88;;;-5.75;100.00
3796;BME280;1913;50.660;7.834;2022-12-18T00:38:47;98226.75;;;-5.73;100.00
3796;BME280;1913;50.660;7.834;2022-12-18T00:41:14;98225.13;;;-5.74;100.00
3796;BME280;1913;50.660;7.834;2022-12-18T00:44:00;98225.66;;;-5.67;100.00
3796;BME280;1913;50.660;7.834;2022-12-18T00:46:26;98220.28;;;-5.63;100.00
3796;BME280;1913;50.660;7.834;2022-12-18T00:48:51;98222.78;;;-5.61;100.00
3796;BME280;1913;50.660;7.834;2022-12-18T00:51:17;98224.81;;;-5.50;100.00
3796;BME280;1913;50.660;7.834;2022-12-18T00:53:42;98226.38;;;-5.48;100.00
3796;BME280;1913;50.660;7.834;2022-12-18T00:56:07;98239.13;;;-5.46;100.00
3796;BME280;1913;50.660;7.834;2022-12-18T00:58:36;98238.88;;;-5.42;100.00
3796;BME280;1913;50.660;7.834;2022-12-18T01:01:02;98243.34;;;-5.45;100.00
3796;BME280;1913;50.660;7.834;2022-12-18T01:03:28;98246.50;;;-5.40;100.00
3796;BME280;1913;50.660;7.834;2022-12-18T01:05:53;98249.06;;;-5.40;100.00
3796;BME280;1913;50.660;7.834;2022-12-18T01:08:19;98249.81;;;-5.38;100.00
3796;BME280;1913;50.660;7.834;2022-12-18T01:10:44;98247.25;;;-5.38;100.00
3796;BME280;1913;50.660;7.834;2022-12-18T01:13:10;98246.03;;;-5.31;100.00
3796;BME280;1913;50.660;7.834;2022-12-18T01:15:35;98237.13;;;-5.24;100.00
3796;BME280;1913;50.660;7.834;2022-12-18T01:18:00;98242.91;;;-5.20;100.00
3796;BME280;1913;50.660;7.834;2022-12-18T01:20:26;98230.78;;;-5.17;100.00
3796;BME280;1913;50.660;7.834;2022-12-18T01:22:51;98223.03;;;-5.15;100.00
3796;BME280;1913;50.660;7.834;2022-12-18T01:25:17;98228.66;;;-5.09;100.00
3796;BME280;1913;50.660;7.834;2022-12-18T01:27:42;98226.78;;;-5.05;100.00
3796;BME280;1913;50.660;7.834;2022-12-18T01:30:08;98232.63;;;-5.03;100.00
3796;BME280;1913;50.660;7.834;2022-12-18T01:32:34;98230.88;;;-5.02;100.00
3796;BME280;1913;50.660;7.834;2022-12-18T01:34:59;98232.78;;;-5.06;100.00
3796;BME280;1913;50.660;7.834;2022-12-18T01:37:24;98225.69;;;-5.01;100.00
3796;BME280;1913;50.660;7.834;2022-12-18T01:39:50;98222.38;;;-5.03;100.00
3796;BME280;1913;50.660;7.834;2022-12-18T01:42:17;98218.06;;;-5.02;100.00
3796;BME280;1913;50.660;7.834;2022-12-18T01:50:14;98228.13;;;-4.98;100.00
3796;BME280;1913;50.660;7.834;2022-12-18T01:52:42;98220.56;;;-5.01;100.00
3796;BME280;1913;50.660;7.834;2022-12-18T01:55:10;98210.47;;;-5.04;100.00
3796;BME280;1913;50.660;7.834;2022-12-18T01:57:37;98218.06;;;-5.02;100.00
3796;BME280;1913;50.660;7.834;2022-12-18T02:00:09;98224.03;;;-5.02;100.00
3796;BME280;1913;50.660;7.834;2022-12-18T02:02:35;98232.47;;;-5.00;100.00
3796;BME280;1913;50.660;7.834;2022-12-18T02:05:02;98225.75;;;-5.02;100.00
3796;BME280;1913;50.660;7.834;2022-12-18T02:12:54;98212.09;;;-5.19;100.00
3796;BME280;1913;50.660;7.834;2022-12-18T02:15:41;98224.41;;;-5.25;100.00
3796;BME280;1913;50.660;7.834;2022-12-18T02:18:13;98228.03;;;-5.30;100.00
3796;BME280;1913;50.660;7.834;2022-12-18T02:20:44;98220.66;;;-5.36;100.00
3796;BME280;1913;50.660;7.834;2022-12-18T02:28:31;98215.69;;;-5.56;100.00
3796;BME280;1913;50.660;7.834;2022-12-18T02:31:01;98231.69;;;-5.68;100.00
3796;BME280;1913;50.660;7.834;2022-12-18T02:33:29;98216.63;;;-5.74;100.00
3796;BME280;1913;50.660;7.834;2022-12-18T02:35:57;98222.78;;;-5.79;100.00
3796;BME280;1913;50.660;7.834;2022-12-18T02:38:23;98220.28;;;-5.80;100.00
3796;BME280;1913;50.660;7.834;2022-12-18T02:40:51;98224.72;;;-5.84;100.00
3796;BME280;1913;50.660;7.834;2022-12-18T02:43:18;98218.25;;;-5.91;100.00
3796;BME280;1913;50.660;7.834;2022-12-18T02:45:50;98233.19;;;-5.99;100.00
3796;BME280;1913;50.660;7.834;2022-12-18T02:48:18;98226.56;;;-6.03;100.00
3796;BME280;1913;50.660;7.834;2022-12-18T02:53:54;98223.34;;;-6.07;100.00
3796;BME280;1913;50.660;7.834;2022-12-18T02:56:41;98226.81;;;-6.08;100.00
3796;BME280;1913;50.660;7.834;2022-12-18T02:59:17;98226.03;;;-6.10;100.00
3796;BME280;1913;50.660;7.834;2022-12-18T03:05:03;98217.31;;;-6.06;100.00
3796;BME280;1913;50.660;7.834;2022-12-18T03:07:38;98227.63;;;-6.07;100.00
3796;BME280;1913;50.660;7.834;2022-12-18T03:10:08;98214.75;;;-6.06;100.00
3796;BME280;1913;50.660;7.834;2022-12-18T03:12:40;98205.41;;;-6.07;100.00
3796;BME280;1913;50.660;7.834;2022-12-18T03:15:16;98221.00;;;-6.11;100.00
3796;BME280;1913;50.660;7.834;2022-12-18T03:17:52;98220.19;;;-6.12;100.00
3796;BME280;1913;50.660;7.834;2022-12-18T03:20:22;98217.69;;;-6.13;100.00
3796;BME280;1913;50.660;7.834;2022-12-18T03:22:59;98219.50;;;-6.15;100.00
3796;BME280;1913;50.660;7.834;2022-12-18T03:25:27;98207.59;;;-6.16;100.00
3796;BME280;1913;50.660;7.834;2022-12-18T03:27:56;98203.59;;;-6.22;100.00
3796;BME280;1913;50.660;7.834;2022-12-18T03:30:24;98205.25;;;-6.21;100.00
3796;BME280;1913;50.660;7.834;2022-12-18T03:33:25;98207.03;;;-6.23;100.00
3796;BME280;1913;50.660;7.834;2022-12-18T03:35:52;98212.25;;;-6.24;100.00
3796;BME280;1913;50.660;7.834;2022-12-18T03:38:18;98215.50;;;-6.21;100.00
3796;BME280;1913;50.660;7.834;2022-12-18T03:44:13;98207.44;;;-6.13;100.00
3796;BME280;1913;50.660;7.834;2022-12-18T03:47:01;98221.16;;;-6.14;100.00
3796;BME280;1913;50.660;7.834;2022-12-18T03:52:31;98192.22;;;-6.16;100.00
3796;BME280;1913;50.660;7.834;2022-12-18T03:54:59;98194.66;;;-6.13;100.00
3796;BME280;1913;50.660;7.834;2022-12-18T03:57:28;98207.53;;;-6.15;100.00
3796;BME280;1913;50.660;7.834;2022-12-18T03:59:58;98198.03;;;-6.13;100.00
3796;BME280;1913;50.660;7.834;2022-12-18T04:02:25;98180.34;;;-6.17;100.00
3796;BME280;1913;50.660;7.834;2022-12-18T04:04:53;98176.00;;;-6.15;100.00
3796;BME280;1913;50.660;7.834;2022-12-18T04:07:23;98168.53;;;-6.20;100.00
3796;BME280;1913;50.660;7.834;2022-12-18T04:09:51;98168.63;;;-6.21;100.00
3796;BME280;1913;50.660;7.834;2022-12-18T04:12:18;98176.16;;;-6.18;100.00
3796;BME280;1913;50.660;7.834;2022-12-18T04:14:44;98174.25;;;-6.15;100.00
3796;BME280;1913;50.660;7.834;2022-12-18T04:17:10;98157.59;;;-6.23;100.00
3796;BME280;1913;50.660;7.834;2022-12-18T04:19:35;98171.91;;;-6.19;100.00
3796;BME280;1913;50.660;7.834;2022-12-18T04:22:00;98175.31;;;-6.19;100.00
3796;BME280;1913;50.660;7.834;2022-12-18T04:24:26;98166.06;;;-6.21;100.00
3796;BME280;1913;50.660;7.834;2022-12-18T04:26:51;98179.59;;;-6.19;100.00
3796;BME280;1913;50.660;7.834;2022-12-18T04:29:17;98172.13;;;-6.24;100.00
3796;BME280;1913;50.660;7.834;2022-12-18T04:31:42;98179.00;;;-6.24;100.00
3796;BME280;1913;50.660;7.834;2022-12-18T04:34:07;98185.06;;;-6.27;100.00
3796;BME280;1913;50.660;7.834;2022-12-18T04:36:33;98178.06;;;-6.23;100.00
3796;BME280;1913;50.660;7.834;2022-12-18T04:38:58;98185.75;;;-6.23;100.00
3796;BME280;1913;50.660;7.834;2022-12-18T04:41:24;98179.66;;;-6.21;100.00
3796;BME280;1913;50.660;7.834;2022-12-18T04:43:49;98174.56;;;-6.21;100.00
3796;BME280;1913;50.660;7.834;2022-12-18T04:46:14;98187.25;;;-6.19;100.00
3796;BME280;1913;50.660;7.834;2022-12-18T04:48:40;98186.38;;;-6.18;100.00
3796;BME280;1913;50.660;7.834;2022-12-18T04:51:06;98179.38;;;-6.15;100.00
3796;BME280;1913;50.660;7.834;2022-12-18T04:53:32;98180.50;;;-6.20;100.00
3796;BME280;1913;50.660;7.834;2022-12-18T04:56:12;98177.69;;;-6.16;100.00
3796;BME280;1913;50.660;7.834;2022-12-18T04:58:40;98176.88;;;-6.16;100.00
3796;BME280;1913;50.660;7.834;2022-12-18T05:01:07;98168.31;;;-6.15;100.00
3796;BME280;1913;50.660;7.834;2022-12-18T05:03:33;98176.00;;;-6.15;100.00
3796;BME280;1913;50.660;7.834;2022-12-18T05:05:58;98192.03;;;-6.12;100.00
3796;BME280;1913;50.660;7.834;2022-12-18T05:08:24;98168.09;;;-6.11;100.00
3796;BME280;1913;50.660;7.834;2022-12-18T05:11:01;98175.63;;;-6.08;100.00
3796;BME280;1913;50.660;7.834;2022-12-18T05:13:28;98190.06;;;-6.07;100.00
3796;BME280;1913;50.660;7.834;2022-12-18T05:15:54;98182.97;;;-6.02;100.00
3796;BME280;1913;50.660;7.834;2022-12-18T05:18:19;98178.63;;;-5.99;100.00
3796;BME280;1913;50.660;7.834;2022-12-18T05:20:45;98189.84;;;-6.02;100.00
3796;BME280;1913;50.660;7.834;2022-12-18T05:23:10;98167.72;;;-6.03;100.00
3796;BME280;1913;50.660;7.834;2022-12-18T05:25:36;98159.13;;;-6.02;100.00
3796;BME280;1913;50.660;7.834;2022-12-18T05:28:01;98178.72;;;-6.01;100.00
3796;BME280;1913;50.660;7.834;2022-12-18T05:30:26;98165.06;;;-6.02;100.00
3796;BME280;1913;50.660;7.834;2022-12-18T05:32:52;98175.25;;;-6.00;100.00
3796;BME280;1913;50.660;7.834;2022-12-18T05:35:18;98152.13;;;-5.98;100.00
3796;BME280;1913;50.660;7.834;2022-12-18T05:37:43;98176.06;;;-5.99;100.00
3796;BME280;1913;50.660;7.834;2022-12-18T05:40:10;98167.19;;;-5.92;100.00
3796;BME280;1913;50.660;7.834;2022-12-18T05:42:35;98148.44;;;-5.93;100.00
3796;BME280;1913;50.660;7.834;2022-12-18T05:45:01;98162.97;;;-5.93;100.00
3796;BME280;1913;50.660;7.834;2022-12-18T05:47:28;98152.22;;;-6.00;100.00
3796;BME280;1913;50.660;7.834;2022-12-18T05:49:54;98153.03;;;-5.99;100.00
3796;BME280;1913;50.660;7.834;2022-12-18T05:52:19;98156.56;;;-6.02;100.00
3796;BME280;1913;50.660;7.834;2022-12-18T05:54:45;98128.41;;;-6.02;100.00
3796;BME280;1913;50.660;7.834;2022-12-18T05:57:10;98135.88;;;-5.97;100.00
3796;BME280;1913;50.660;7.834;2022-12-18T05:59:35;98154.78;;;-6.00;100.00
3796;BME280;1913;50.660;7.834;2022-12-18T06:02:01;98140.81;;;-5.94;100.00
3796;BME280;1913;50.660;7.834;2022-12-18T06:04:31;98138.25;;;-5.94;100.00
3796;BME280;1913;50.660;7.834;2022-12-18T06:06:56;98138.03;;;-5.90;100.00
3796;BME280;1913;50.660;7.834;2022-12-18T06:09:22;98147.13;;;-5.84;100.00
3796;BME280;1913;50.660;7.834;2022-12-18T06:11:47;98144.56;;;-5.84;100.00
3796;BME280;1913;50.660;7.834;2022-12-18T06:14:13;98155.31;;;-5.78;100.00
3796;BME280;1913;50.660;7.834;2022-12-18T06:16:38;98160.44;;;-5.78;100.00
3796;BME280;1913;50.660;7.834;2022-12-18T06:19:05;98156.13;;;-5.77;100.00
3796;BME280;1913;50.660;7.834;2022-12-18T06:21:32;98163.75;;;-5.75;100.00
3796;BME280;1913;50.660;7.834;2022-12-18T06:23:58;98174.81;;;-5.75;100.00
3796;BME280;1913;50.660;7.834;2022-12-18T06:26:23;98162.75;;;-5.73;100.00
3796;BME280;1913;50.660;7.834;2022-12-18T06:28:49;98166.84;;;-5.69;100.00
3796;BME280;1913;50.660;7.834;2022-12-18T06:31:15;98179.72;;;-5.70;100.00
3796;BME280;1913;50.660;7.834;2022-12-18T06:33:40;98181.44;;;-5.71;100.00
3796;BME280;1913;50.660;7.834;2022-12-18T06:36:08;98172.13;;;-5.72;100.00
3796;BME280;1913;50.660;7.834;2022-12-18T06:38:35;98191.78;;;-5.72;100.00
3796;BME280;1913;50.660;7.834;2022-12-18T06:41:06;98175.41;;;-5.70;100.00
3796;BME280;1913;50.660;7.834;2022-12-18T06:43:31;98203.50;;;-5.68;100.00
3796;BME280;1913;50.660;7.834;2022-12-18T06:46:00;98201.69;;;-5.66;100.00
3796;BME280;1913;50.660;7.834;2022-12-18T06:48:27;98206.06;;;-5.68;100.00
3796;BME280;1913;50.660;7.834;2022-12-18T06:50:52;98205.97;;;-5.67;100.00
3796;BME280;1913;50.660;7.834;2022-12-18T06:53:17;98202.69;;;-5.69;100.00
3796;BME280;1913;50.660;7.834;2022-12-18T06:55:43;98207.06;;;-5.71;100.00
3796;BME280;1913;50.660;7.834;2022-12-18T06:58:08;98198.53;;;-5.71;100.00
3796;BME280;1913;50.660;7.834;2022-12-18T07:00:34;98208.78;;;-5.71;100.00
3796;BME280;1913;50.660;7.834;2022-12-18T07:02:59;98188.16;;;-5.68;100.00
3796;BME280;1913;50.660;7.834;2022-12-18T07:05:24;98191.78;;;-5.72;100.00
3796;BME280;1913;50.660;7.834;2022-12-18T07:07:50;98182.34;;;-5.72;100.00
3796;BME280;1913;50.660;7.834;2022-12-18T07:10:15;98176.09;;;-5.66;100.00
3796;BME280;1913;50.660;7.834;2022-12-18T07:12:41;98172.69;;;-5.67;100.00
3796;BME280;1913;50.660;7.834;2022-12-18T07:15:07;98180.31;;;-5.65;100.00
3796;BME280;1913;50.660;7.834;2022-12-18T07:17:32;98179.94;;;-5.58;100.00
3796;BME280;1913;50.660;7.834;2022-12-18T07:19:57;98179.09;;;-5.58;100.00
3796;BME280;1913;50.660;7.834;2022-12-18T07:22:25;98186.84;;;-5.60;100.00
3796;BME280;1913;50.660;7.834;2022-12-18T07:24:51;98182.25;;;-5.53;100.00
3796;BME280;1913;50.660;7.834;2022-12-18T07:27:16;98172.91;;;-5.54;100.00
3796;BME280;1913;50.660;7.834;2022-12-18T07:29:41;98178.72;;;-5.50;100.00
3796;BME280;1913;50.660;7.834;2022-12-18T07:32:07;98178.56;;;-5.47;100.00
3796;BME280;1913;50.660;7.834;2022-12-18T07:34:32;98181.84;;;-5.45;100.00
3796;BME280;1913;50.660;7.834;2022-12-18T07:36:58;98188.47;;;-5.41;100.00
3796;BME280;1913;50.660;7.834;2022-12-18T07:39:23;98168.91;;;-5.42;100.00
3796;BME280;1913;50.660;7.834;2022-12-18T07:41:49;98180.72;;;-5.40;100.00
3796;BME280;1913;50.660;7.834;2022-12-18T07:44:34;98183.88;;;-5.35;100.00
3796;BME280;1913;50.660;7.834;2022-12-18T07:46:59;98191.56;;;-5.35;100.00
3796;BME280;1913;50.660;7.834;2022-12-18T07:49:25;98179.72;;;-5.37;100.00
3796;BME280;1913;50.660;7.834;2022-12-18T07:51:50;98181.97;;;-5.31;100.00
3796;BME280;1913;50.660;7.834;2022-12-18T07:54:16;98187.03;;;-5.30;100.00
3796;BME280;1913;50.660;7.834;2022-12-18T07:56:41;98194.72;;;-5.30;100.00
3796;BME280;1913;50.660;7.834;2022-12-18T07:59:07;98195.59;;;-5.31;100.00
3796;BME280;1913;50.660;7.834;2022-12-18T08:01:33;98198.63;;;-5.22;100.00
3796;BME280;1913;50.660;7.834;2022-12-18T08:03:59;98200.44;;;-5.24;100.00
3796;BME280;1913;50.660;7.834;2022-12-18T08:06:25;98188.22;;;-5.19;100.00
3796;BME280;1913;50.660;7.834;2022-12-18T08:08:55;98178.03;;;-5.21;100.00
3796;BME280;1913;50.660;7.834;2022-12-18T08:11:22;98187.38;;;-5.20;100.00
3796;BME280;1913;50.660;7.834;2022-12-18T08:13:48;98183.66;;;-5.14;100.00
3796;BME280;1913;50.660;7.834;2022-12-18T08:16:13;98185.00;;;-5.07;100.00
3796;BME280;1913;50.660;7.834;2022-12-18T08:18:38;98188.81;;;-4.67;100.00
3796;BME280;1913;50.660;7.834;2022-12-18T08:21:30;98186.34;;;-4.06;100.00
3796;BME280;1913;50.660;7.834;2022-12-18T08:23:59;98194.47;;;-3.54;100.00
3796;BME280;1913;50.660;7.834;2022-12-18T08:26:27;98182.09;;;-3.04;100.00
3796;BME280;1913;50.660;7.834;2022-12-18T08:28:54;98168.84;;;-2.57;100.00
3796;BME280;1913;50.660;7.834;2022-12-18T08:31:20;98180.59;;;-2.53;100.00
3796;BME280;1913;50.660;7.834;2022-12-18T08:33:49;98149.78;;;-2.40;100.00
3796;BME280;1913;50.660;7.834;2022-12-18T08:36:15;98155.56;;;-2.36;100.00
3796;BME280;1913;50.660;7.834;2022-12-18T08:38:41;98158.94;;;-2.09;100.00
3796;BME280;1913;50.660;7.834;2022-12-18T08:41:09;98159.72;;;-2.21;100.00
3796;BME280;1913;50.660;7.834;2022-12-18T08:43:35;98162.66;;;-2.13;100.00
3796;BME280;1913;50.660;7.834;2022-12-18T08:46:20;98141.69;;;-2.21;100.00
3796;BME280;1913;50.660;7.834;2022-12-18T08:48:46;98138.09;;;-2.19;100.00
3796;BME280;1913;50.660;7.834;2022-12-18T08:51:12;98142.59;;;-2.35;100.00
3796;BME280;1913;50.660;7.834;2022-12-18T08:53:37;98137.84;;;-2.41;100.00
3796;BME280;1913;50.660;7.834;2022-12-18T08:56:04;98131.38;;;-2.34;100.00
3796;BME280;1913;50.660;7.834;2022-12-18T08:58:30;98150.03;;;-2.30;100.00
3796;BME280;1913;50.660;7.834;2022-12-18T09:01:06;98134.53;;;-2.16;100.00
3796;BME280;1913;50.660;7.834;2022-12-18T09:03:32;98150.69;;;-2.14;100.00
3796;BME280;1913;50.660;7.834;2022-12-18T09:05:58;98152.13;;;-1.70;100.00
3796;BME280;1913;50.660;7.834;2022-12-18T09:08:25;98146.34;;;-1.74;100.00
3796;BME280;1913;50.660;7.834;2022-12-18T09:10:51;98141.88;;;-1.72;100.00
3796;BME280;1913;50.660;7.834;2022-12-18T09:13:17;98153.78;;;-1.56;100.00
3796;BME280;1913;50.660;7.834;2022-12-18T09:15:45;98140.66;;;-1.53;100.00
3796;BME280;1913;50.660;7.834;2022-12-18T09:18:12;98163.75;;;-1.52;100.00
3796;BME280;1913;50.660;7.834;2022-12-18T09:20:38;98155.81;;;-1.36;100.00
3796;BME280;1913;50.660;7.834;2022-12-18T09:23:04;98144.03;;;-1.14;100.00
3796;BME280;1913;50.660;7.834;2022-12-18T09:25:31;98150.34;;;-1.18;100.00
3796;BME280;1913;50.660;7.834;2022-12-18T09:28:02;98147.94;;;-1.09;100.00
3796;BME280;1913;50.660;7.834;2022-12-18T09:30:28;98135.59;;;-0.80;100.00
3796;BME280;1913;50.660;7.834;2022-12-18T09:32:54;98134.31;;;-1.11;100.00
3796;BME280;1913;50.660;7.834;2022-12-18T09:35:19;98143.81;;;-0.99;100.00
3796;BME280;1913;50.660;7.834;2022-12-18T09:37:45;98138.47;;;-1.21;100.00
3796;BME280;1913;50.660;7.834;2022-12-18T09:40:14;98142.69;;;-1.07;100.00
3796;BME280;1913;50.660;7.834;2022-12-18T09:42:45;98153.94;;;-1.21;100.00
3796;BME280;1913;50.660;7.834;2022-12-18T09:45:14;98157.13;;;-1.05;100.00
3796;BME280;1913;50.660;7.834;2022-12-18T09:47:42;98157.13;;;-1.05;100.00
3796;BME280;1913;50.660;7.834;2022-12-18T09:50:27;98159.00;;;-1.19;100.00
3796;BME280;1913;50.660;7.834;2022-12-18T09:52:58;98160.09;;;-0.85;100.00
3796;BME280;1913;50.660;7.834;2022-12-18T09:58:12;98133.53;;;-0.51;100.00
3796;BME280;1913;50.660;7.834;2022-12-18T10:00:39;98123.97;;;-0.61;100.00
3796;BME280;1913;50.660;7.834;2022-12-18T10:03:13;98117.56;;;-0.32;100.00
3796;BME280;1913;50.660;7.834;2022-12-18T10:20:42;98110.34;;;-1.37;100.00
3796;BME280;1913;50.660;7.834;2022-12-18T10:23:14;98099.59;;;-1.31;100.00
3796;BME280;1913;50.660;7.834;2022-12-18T10:26:02;98100.56;;;-1.45;100.00
3796;BME280;1913;50.660;7.834;2022-12-18T10:28:29;98094.25;;;-1.53;100.00
3796;BME280;1913;50.660;7.834;2022-12-18T10:30:55;98100.88;;;-1.49;100.00
3796;BME280;1913;50.660;7.834;2022-12-18T10:33:23;98098.28;;;-1.49;100.00
3796;BME280;1913;50.660;7.834;2022-12-18T10:35:50;98101.69;;;-1.49;100.00
3796;BME280;1913;50.660;7.834;2022-12-18T10:40:55;98087.03;;;-1.61;100.00
3796;BME280;1913;50.660;7.834;2022-12-18T10:43:34;98091.78;;;-1.55;100.00
3796;BME280;1913;50.660;7.834;2022-12-18T10:54:06;98080.94;;;-1.47;100.00
3796;BME280;1913;50.660;7.834;2022-12-18T10:56:36;98073.56;;;-1.15;100.00
3796;BME280;1913;50.660;7.834;2022-12-18T10:59:03;98074.31;;;-1.26;100.00
3796;BME280;1913;50.660;7.834;2022-12-18T11:01:54;98065.88;;;-1.28;100.00
3796;BME280;1913;50.660;7.834;2022-12-18T11:04:25;98070.53;;;-0.96;100.00
3796;BME280;1913;50.660;7.834;2022-12-18T11:07:01;98076.78;;;-0.87;100.00
3796;BME280;1913;50.660;7.834;2022-12-18T11:09:33;98074.22;;;-0.87;100.00
3796;BME280;1913;50.660;7.834;2022-12-18T11:12:02;98068.88;;;-0.97;100.00
3796;BME280;1913;50.660;7.834;2022-12-18T11:14:34;98049.31;;;-1.12;100.00
3796;BME280;1913;50.660;7.834;2022-12-18T11:17:21;98055.34;;;-1.01;100.00
3796;BME280;1913;50.660;7.834;2022-12-18T11:19:58;98050.63;;;-1.07;100.00
3796;BME280;1913;50.660;7.834;2022-12-18T11:22:43;98066.22;;;-1.08;100.00
3796;BME280;1913;50.660;7.834;2022-12-18T11:27:38;98052.31;;;-1.18;100.00
3796;BME280;1913;50.660;7.834;2022-12-18T11:30:31;98058.28;;;-1.42;100.00
3796;BME280;1913;50.660;7.834;2022-12-18T11:33:12;98058.47;;;-1.45;100.00
3796;BME280;1913;50.660;7.834;2022-12-18T11:35:42;98056.19;;;-1.37;100.00
3796;BME280;1913;50.660;7.834;2022-12-18T11:38:24;98066.50;;;-1.24;100.00
3796;BME280;1913;50.660;7.834;2022-12-18T11:41:27;98069.69;;;-1.21;100.00
3796;BME280;1913;50.660;7.834;2022-12-18T11:44:18;98075.88;;;-1.23;100.00
3796;BME280;1913;50.660;7.834;2022-12-18T11:46:52;98090.72;;;-1.27;100.00
3796;BME280;1913;50.660;7.834;2022-12-18T11:49:28;98090.59;;;-1.12;100.00
3796;BME280;1913;50.660;7.834;2022-12-18T11:52:22;98080.41;;;-0.90;100.00
3796;BME280;1913;50.660;7.834;2022-12-18T11:54:55;98082.34;;;-0.81;100.00
3796;BME280;1913;50.660;7.834;2022-12-18T11:57:39;98109.91;;;-0.81;100.00
3796;BME280;1913;50.660;7.834;2022-12-18T12:00:13;98099.97;;;-1.11;100.00
3796;BME280;1913;50.660;7.834;2022-12-18T12:03:20;98089.03;;;-1.15;100.00
3796;BME280;1913;50.660;7.834;2022-12-18T12:06:03;98084.22;;;-1.32;100.00
3796;BME280;1913;50.660;7.834;2022-12-18T12:19:34;98060.34;;;-1.85;100.00
3796;BME280;1913;50.660;7.834;2022-12-18T12:22:13;98060.88;;;-2.06;100.00
3796;BME280;1913;50.660;7.834;2022-12-18T12:30:21;98064.72;;;-2.38;100.00
3796;BME280;1913;50.660;7.834;2022-12-18T12:33:27;98079.66;;;-2.71;100.00
3796;BME280;1913;50.660;7.834;2022-12-18T12:38:41;98076.72;;;-3.33;100.00
3796;BME280;1913;50.660;7.834;2022-12-18T12:41:13;98085.63;;;-3.53;100.00
3796;BME280;1913;50.660;7.834;2022-12-18T12:44:02;98074.06;;;-3.60;100.00
3796;BME280;1913;50.660;7.834;2022-12-18T12:46:34;98075.34;;;-3.53;100.00
3796;BME280;1913;50.660;7.834;2022-12-18T12:49:03;98061.19;;;-3.46;100.00
3796;BME280;1913;50.660;7.834;2022-12-18T12:51:40;98067.91;;;-3.57;100.00
3796;BME280;1913;50.660;7.834;2022-12-18T12:54:18;98051.75;;;-3.45;100.00
3796;BME280;1913;50.660;7.834;2022-12-18T12:59:24;98043.97;;;-3.72;100.00
3796;BME280;1913;50.660;7.834;2022-12-18T13:04:47;98044.44;;;-3.80;100.00
3796;BME280;1913;50.660;7.834;2022-12-18T13:07:26;98048.19;;;-3.86;100.00
3796;BME280;1913;50.660;7.834;2022-12-18T13:13:06;98047.72;;;-3.92;100.00
3796;BME280;1913;50.660;7.834;2022-12-18T13:15:40;98055.81;;;-3.98;100.00
3796;BME280;1913;50.660;7.834;2022-12-18T13:30:57;98074.84;;;-4.17;100.00
3796;BME280;1913;50.660;7.834;2022-12-18T13:43:26;98020.41;;;-4.52;100.00
3796;BME280;1913;50.660;7.834;2022-12-18T13:46:18;98033.78;;;-4.61;100.00
3796;BME280;1913;50.660;7.834;2022-12-18T13:51:17;98067.63;;;-4.70;100.00
3796;BME280;1913;50.660;7.834;2022-12-18T13:53:50;98015.50;;;-4.71;100.00
3796;BME280;1913;50.660;7.834;2022-12-18T13:56:17;98009.25;;;-4.81;100.00
3796;BME280;1913;50.660;7.834;2022-12-18T13:58:42;98001.00;;;-4.86;100.00
3796;BME280;1913;50.660;7.834;2022-12-18T14:01:24;97999.25;;;-4.86;100.00
3796;BME280;1913;50.660;7.834;2022-12-18T14:03:49;98009.03;;;-4.92;100.00
3796;BME280;1913;50.660;7.834;2022-12-18T14:06:16;97999.59;;;-4.92;100.00
3796;BME280;1913;50.660;7.834;2022-12-18T14:08:42;98002.59;;;-4.99;100.00
3796;BME280;1913;50.660;7.834;2022-12-18T14:11:18;98026.66;;;-5.02;100.00
3796;BME280;1913;50.660;7.834;2022-12-18T14:13:45;98041.97;;;-5.00;100.00
3796;BME280;1913;50.660;7.834;2022-12-18T14:16:14;98033.69;;;-5.06;100.00
3796;BME280;1913;50.660;7.834;2022-12-18T14:18:47;98039.41;;;-5.16;100.00
3796;BME280;1913;50.660;7.834;2022-12-18T14:21:25;98042.88;;;-5.17;100.00
3796;BME280;1913;50.660;7.834;2022-12-18T14:24:15;98029.16;;;-5.16;100.00
3796;BME280;1913;50.660;7.834;2022-12-18T14:26:41;98059.16;;;-5.18;100.00
3796;BME280;1913;50.660;7.834;2022-12-18T14:29:26;98039.59;;;-5.19;100.00
3796;BME280;1913;50.660;7.834;2022-12-18T14:32:13;98029.00;;;-5.29;100.00
3796;BME280;1913;50.660;7.834;2022-12-18T14:34:41;98005.94;;;-5.29;100.00
3796;BME280;1913;50.660;7.834;2022-12-18T14:37:09;98018.16;;;-5.34;100.00
3796;BME280;1913;50.660;7.834;2022-12-18T14:39:35;98015.75;;;-5.37;100.00
3796;BME280;1913;50.660;7.834;2022-12-18T14:42:00;98029.50;;;-5.38;100.00
3796;BME280;1913;50.660;7.834;2022-12-18T14:44:26;98025.69;;;-5.47;100.00
3796;BME280;1913;50.660;7.834;2022-12-18T14:46:51;98021.41;;;-5.46;100.00
3796;BME280;1913;50.660;7.834;2022-12-18T14:49:31;98018.19;;;-5.50;100.00
3796;BME280;1913;50.660;7.834;2022-12-18T14:52:02;98021.16;;;-5.58;100.00
3796;BME280;1913;50.660;7.834;2022-12-18T14:54:29;98016.69;;;-5.54;100.00
3796;BME280;1913;50.660;7.834;2022-12-18T14:57:02;98012.03;;;-5.63;100.00
3796;BME280;1913;50.660;7.834;2022-12-18T14:59:29;98006.94;;;-5.63;100.00
3796;BME280;1913;50.660;7.834;2022-12-18T15:02:03;98001.13;;;-5.67;100.00
3796;BME280;1913;50.660;7.834;2022-12-18T15:05:38;98003.03;;;-5.70;100.00
3796;BME280;1913;50.660;7.834;2022-12-18T15:07:49;97996.19;;;-5.70;100.00
3796;BME280;1913;50.660;7.834;2022-12-18T15:12:47;97988.84;;;-5.76;100.00
3796;BME280;1913;50.660;7.834;2022-12-18T15:18:14;97988.09;;;-5.78;100.00
3796;BME280;1913;50.660;7.834;2022-12-18T15:21:08;97995.88;;;-5.80;100.00
3796;BME280;1913;50.660;7.834;2022-12-18T15:26:09;97964.47;;;-5.83;100.00